createdAt,value
2017-08-06T00:00:17.905Z,68.83
2017-08-06T00:01:18.039Z,69.02
2017-08-06T00:02:18.035Z,69.31
2017-08-06T00:03:18.039Z,69.56
2017-08-06T00:04:18.054Z,69.75
2017-08-06T00:05:18.006Z,70.14
2017-08-06T00:06:18.052Z,70.43
2017-08-06T00:07:18.058Z,70.81
2017-08-06T00:08:18.079Z,70.23
2017-08-06T00:09:18.055Z,70.62
2017-08-06T00:10:18.008Z,70.43
2017-08-06T00:11:18.061Z,70.07
2017-08-06T00:12:18.058Z,69.95
2017-08-06T00:13:18.057Z,69.46
2017-08-06T00:14:18.059Z,69.6
2017-08-06T00:15:18.064Z,69.66
2017-08-06T00:16:18.066Z,69.79
2017-08-06T00:17:17.765Z,69.31
2017-08-06T00:18:17.786Z,69.98
2017-08-06T00:19:18.080Z,69.4
2017-08-06T00:20:18.338Z,69.75
2017-08-06T00:21:18.082Z,69.79
2017-08-06T00:22:17.788Z,70.04
2017-08-06T00:23:18.083Z,70.65
2017-08-06T00:24:18.088Z,71.39
2017-08-06T00:25:17.955Z,71.29
2017-08-06T00:26:18.091Z,71.87
2017-08-06T00:27:18.090Z,71.39
2017-08-06T00:28:18.099Z,71.58
2017-08-06T00:29:18.098Z,71.58
2017-08-06T00:30:21.868Z,71.67
2017-08-06T00:31:18.101Z,72.25
2017-08-06T00:32:18.140Z,72.16
2017-08-06T00:33:18.112Z,71.96
2017-08-06T00:34:18.139Z,72.06
2017-08-06T00:35:18.218Z,72.06
2017-08-06T00:36:18.109Z,72.83
2017-08-06T00:37:18.114Z,72.79
2017-08-06T00:38:18.130Z,72.99
2017-08-06T00:39:18.126Z,72.69
2017-08-06T00:40:18.176Z,72.79
2017-08-06T00:41:18.127Z,71.45
2017-08-06T00:42:18.130Z,72.22
2017-08-06T00:43:18.134Z,72.89
2017-08-06T00:44:17.827Z,72.99
2017-08-06T00:45:18.187Z,73.37
2017-08-06T00:46:18.138Z,73.56
2017-08-06T00:47:18.142Z,72.89
2017-08-06T00:48:17.834Z,74.04
2017-08-06T00:49:17.840Z,73.18
2017-08-06T00:50:18.257Z,73.08
2017-08-06T00:51:18.147Z,73.56
2017-08-06T00:52:18.157Z,73.75
2017-08-06T00:53:18.154Z,74.04
2017-08-06T00:54:18.159Z,73.85
2017-08-06T00:55:17.863Z,74.43
2017-08-06T00:56:18.160Z,74.33
2017-08-06T00:57:18.161Z,74.23
2017-08-06T00:58:18.158Z,74.33
2017-08-06T00:59:17.866Z,74.23
2017-08-06T01:00:18.244Z,74.23
2017-08-06T01:01:18.170Z,74.33
2017-08-06T01:02:18.168Z,74.13
2017-08-06T01:03:18.176Z,73.94
2017-08-06T01:04:18.169Z,74.13
2017-08-06T01:05:18.181Z,74.52
2017-08-06T01:06:18.177Z,74.23
2017-08-06T01:07:18.173Z,74.33
2017-08-06T01:08:18.176Z,73.94
2017-08-06T01:09:18.179Z,73.66
2017-08-06T01:10:18.261Z,74.52
2017-08-06T01:11:18.181Z,74.33
2017-08-06T01:12:18.195Z,74.52
2017-08-06T01:13:18.187Z,73.94
2017-08-06T01:14:18.187Z,74.23
2017-08-06T01:15:18.193Z,74.52
2017-08-06T01:16:17.896Z,74.13
2017-08-06T01:17:18.198Z,74.33
2017-08-06T01:18:17.895Z,74.23
2017-08-06T01:19:18.203Z,74.13
2017-08-06T01:20:18.267Z,73.56
2017-08-06T01:21:18.200Z,74.13
2017-08-06T01:22:18.203Z,74.04
2017-08-06T01:23:18.212Z,73.46
2017-08-06T01:24:18.211Z,73.66
2017-08-06T01:25:18.080Z,73.85
2017-08-06T01:26:18.219Z,74.13
2017-08-06T01:27:18.213Z,74.23
2017-08-06T01:28:18.214Z,74.43
2017-08-06T01:29:18.218Z,74.52
2017-08-06T01:30:18.455Z,75.2
2017-08-06T01:31:20.876Z,74.43
2017-08-06T01:32:17.920Z,74.23
2017-08-06T01:33:18.226Z,74.33
2017-08-06T01:34:18.224Z,74.04
2017-08-06T01:35:18.230Z,74.23
2017-08-06T01:36:18.234Z,74.33
2017-08-06T01:37:18.233Z,74.33
2017-08-06T01:38:17.938Z,75.77
2017-08-06T01:39:18.247Z,75.67
2017-08-06T01:40:18.240Z,75.38
2017-08-06T01:41:18.241Z,75.2
2017-08-06T01:42:18.243Z,75.77
2017-08-06T01:43:18.246Z,75.67
2017-08-06T01:44:17.949Z,75.48
2017-08-06T01:45:18.335Z,75.77
2017-08-06T01:46:17.948Z,75.67
2017-08-06T01:47:18.256Z,74.52
2017-08-06T01:48:18.255Z,74.33
2017-08-06T01:49:18.261Z,74.71
2017-08-06T01:50:18.555Z,74.33
2017-08-06T01:51:17.960Z,74.62
2017-08-06T01:52:18.266Z,74.39
2017-08-06T01:53:18.266Z,73.94
2017-08-06T01:54:18.267Z,73.94
2017-08-06T01:55:18.065Z,74.13
2017-08-06T01:56:18.273Z,73.75
2017-08-06T01:57:17.974Z,73.94
2017-08-06T01:58:18.285Z,73.85
2017-08-06T01:59:18.292Z,73.75
2017-08-06T02:00:18.286Z,73.27
2017-08-06T02:01:18.291Z,73.94
2017-08-06T02:02:18.287Z,73.94
2017-08-06T02:03:18.288Z,73.52
2017-08-06T02:04:17.988Z,73.94
2017-08-06T02:05:18.448Z,73.52
2017-08-06T02:06:18.290Z,73.66
2017-08-06T02:07:18.294Z,73.37
2017-08-06T02:08:17.994Z,73.18
2017-08-06T02:09:18.299Z,72.85
2017-08-06T02:10:18.337Z,72.99
2017-08-06T02:11:18.303Z,73.18
2017-08-06T02:12:18.304Z,73.08
2017-08-06T02:13:18.308Z,73.08
2017-08-06T02:14:18.309Z,73.75
2017-08-06T02:15:18.311Z,73.66
2017-08-06T02:16:18.009Z,74.13
2017-08-06T02:17:18.363Z,75.57
2017-08-06T02:18:18.015Z,75.96
2017-08-06T02:19:18.321Z,76.34
2017-08-06T02:20:18.323Z,76.34
2017-08-06T02:21:18.321Z,76.34
2017-08-06T02:22:18.327Z,76.73
2017-08-06T02:23:18.335Z,75.96
2017-08-06T02:24:18.329Z,76.31
2017-08-06T02:25:18.342Z,76.73
2017-08-06T02:26:18.339Z,76.4
2017-08-06T02:27:18.335Z,76.44
2017-08-06T02:28:18.335Z,76.15
2017-08-06T02:29:18.336Z,76.59
2017-08-06T02:30:18.345Z,76.4
2017-08-06T02:31:18.343Z,76.79
2017-08-06T02:32:19.695Z,76.69
2017-08-06T02:33:18.046Z,77.65
2017-08-06T02:34:18.349Z,78.03
2017-08-06T02:35:18.582Z,77.84
2017-08-06T02:36:18.355Z,77.84
2017-08-06T02:37:18.355Z,77.46
2017-08-06T02:38:18.355Z,77.84
2017-08-06T02:39:18.356Z,78.13
2017-08-06T02:40:18.060Z,77.94
2017-08-06T02:41:18.360Z,78.13
2017-08-06T02:42:18.360Z,78.42
2017-08-06T02:43:18.365Z,78.61
2017-08-06T02:44:18.374Z,77.94
2017-08-06T02:45:18.590Z,78.03
2017-08-06T02:46:18.075Z,78.32
2017-08-06T02:47:18.432Z,78.32
2017-08-06T02:48:18.507Z,78.52
2017-08-06T02:49:18.171Z,78.52
2017-08-06T02:50:18.598Z,78.61
2017-08-06T02:51:18.614Z,78.32
2017-08-06T02:52:18.867Z,78.99
2017-08-06T02:53:18.380Z,78.8
2017-08-06T02:54:18.388Z,79.44
2017-08-06T02:55:18.389Z,79.67
2017-08-06T02:56:18.388Z,79.72
2017-08-06T02:57:18.393Z,79.91
2017-08-06T02:58:18.392Z,80.11
2017-08-06T02:59:18.396Z,80.3
2017-08-06T03:00:18.392Z,79.91
2017-08-06T03:01:18.395Z,80.58
2017-08-06T03:02:21.210Z,80.4
2017-08-06T03:03:18.402Z,80.58
2017-08-06T03:04:18.403Z,80.4
2017-08-06T03:05:18.407Z,80.58
2017-08-06T03:06:18.406Z,80.49
2017-08-06T03:07:18.108Z,80.2
2017-08-06T03:08:18.416Z,80.4
2017-08-06T03:09:18.411Z,80.3
2017-08-06T03:10:18.577Z,80.68
2017-08-06T03:11:18.413Z,81.07
2017-08-06T03:12:18.416Z,81.07
2017-08-06T03:13:18.117Z,80.58
2017-08-06T03:14:18.421Z,80.68
2017-08-06T03:15:18.484Z,80.49
2017-08-06T03:16:18.425Z,79.82
2017-08-06T03:17:18.126Z,80.11
2017-08-06T03:18:18.425Z,80.2
2017-08-06T03:19:18.430Z,81.07
2017-08-06T03:20:18.550Z,81.16
2017-08-06T03:21:18.431Z,81.26
2017-08-06T03:22:18.433Z,80.78
2017-08-06T03:23:18.435Z,80.68
2017-08-06T03:24:18.438Z,80.68
2017-08-06T03:25:18.488Z,80.49
2017-08-06T03:26:18.442Z,80.68
2017-08-06T03:27:18.450Z,80.68
2017-08-06T03:28:18.446Z,81.07
2017-08-06T03:29:18.444Z,81.16
2017-08-06T03:30:18.462Z,81.16
2017-08-06T03:31:18.459Z,81.07
2017-08-06T03:32:18.449Z,81.26
2017-08-06T03:33:18.451Z,81.64
2017-08-06T03:34:18.454Z,81.64
2017-08-06T03:35:19.241Z,81.64
2017-08-06T03:36:18.461Z,81.64
2017-08-06T03:37:18.467Z,82.12
2017-08-06T03:38:18.460Z,82.6
2017-08-06T03:39:18.461Z,82.12
2017-08-06T03:40:18.467Z,82.12
2017-08-06T03:41:18.474Z,82.21
2017-08-06T03:42:18.469Z,82.12
2017-08-06T03:43:18.166Z,82.12
2017-08-06T03:44:18.468Z,82.41
2017-08-06T03:45:18.170Z,82.41
2017-08-06T03:46:18.478Z,82.31
2017-08-06T03:47:18.482Z,82.12
2017-08-06T03:48:18.477Z,82.12
2017-08-06T03:49:18.482Z,82.21
2017-08-06T03:50:18.479Z,82.89
2017-08-06T03:51:18.482Z,82.89
2017-08-06T03:52:18.482Z,83.37
2017-08-06T03:53:18.483Z,83.08
2017-08-06T03:54:18.488Z,82.89
2017-08-06T03:55:18.488Z,82.79
2017-08-06T03:56:18.504Z,82.6
2017-08-06T03:57:18.502Z,82.21
2017-08-06T03:58:18.493Z,82.12
2017-08-06T03:59:18.493Z,82.03
2017-08-06T04:00:18.501Z,81.64
2017-08-06T04:01:18.501Z,82.31
2017-08-06T04:02:18.502Z,81.84
2017-08-06T04:03:18.500Z,82.12
2017-08-06T04:04:18.505Z,82.21
2017-08-06T04:05:18.507Z,82.21
2017-08-06T04:06:18.511Z,82.41
2017-08-06T04:07:18.511Z,82.7
2017-08-06T04:08:18.515Z,82.51
2017-08-06T04:09:18.521Z,82.6
2017-08-06T04:10:18.527Z,82.31
2017-08-06T04:11:18.522Z,82.41
2017-08-06T04:12:18.516Z,82.31
2017-08-06T04:13:18.530Z,82.12
2017-08-06T04:14:18.521Z,82.41
2017-08-06T04:15:18.524Z,82.12
2017-08-06T04:16:18.551Z,82.31
2017-08-06T04:17:18.531Z,82.41
2017-08-06T04:18:18.536Z,82.21
2017-08-06T04:19:18.530Z,82.12
2017-08-06T04:20:18.537Z,82.41
2017-08-06T04:21:18.532Z,82.31
2017-08-06T04:22:18.538Z,82.7
2017-08-06T04:23:18.543Z,81.93
2017-08-06T04:24:18.537Z,82.03
2017-08-06T04:25:18.539Z,82.41
2017-08-06T04:26:18.549Z,82.35
2017-08-06T04:27:18.236Z,82.21
2017-08-06T04:28:18.547Z,82.16
2017-08-06T04:29:18.248Z,82.7
2017-08-06T04:30:18.553Z,82.45
2017-08-06T04:31:18.549Z,82.31
2017-08-06T04:32:18.554Z,82.51
2017-08-06T04:33:18.605Z,82.51
2017-08-06T04:34:18.553Z,82.89
2017-08-06T04:35:18.556Z,83.12
2017-08-06T04:36:18.562Z,82.35
2017-08-06T04:37:18.562Z,82.26
2017-08-06T04:38:18.565Z,81.97
2017-08-06T04:39:18.568Z,81.97
2017-08-06T04:40:18.568Z,82.45
2017-08-06T04:41:18.567Z,82.45
2017-08-06T04:42:18.571Z,82.45
2017-08-06T04:43:18.572Z,82.54
2017-08-06T04:44:18.577Z,82.35
2017-08-06T04:45:18.574Z,82.45
2017-08-06T04:46:18.573Z,82.7
2017-08-06T04:47:18.580Z,83.41
2017-08-06T04:48:20.532Z,83.08
2017-08-06T04:49:18.580Z,82.7
2017-08-06T04:50:18.582Z,83.18
2017-08-06T04:51:18.586Z,82.98
2017-08-06T04:52:18.586Z,83.31
2017-08-06T04:53:18.590Z,82.98
2017-08-06T04:54:18.589Z,83.94
2017-08-06T04:55:18.590Z,83.8
2017-08-06T04:56:18.593Z,83.75
2017-08-06T04:57:18.591Z,83.47
2017-08-06T04:58:18.598Z,83.98
2017-08-06T04:59:18.604Z,83.7
2017-08-06T05:00:18.298Z,83.22
2017-08-06T05:01:18.601Z,83.22
2017-08-06T05:02:18.603Z,83.31
2017-08-06T05:03:18.654Z,83.51
2017-08-06T05:04:18.606Z,81.97
2017-08-06T05:05:18.611Z,82.35
2017-08-06T05:06:18.614Z,82.26
2017-08-06T05:07:18.613Z,82.07
2017-08-06T05:08:18.614Z,82.54
2017-08-06T05:09:18.614Z,82.3
2017-08-06T05:10:18.617Z,82.16
2017-08-06T05:11:18.623Z,82.2
2017-08-06T05:12:18.625Z,81.63
2017-08-06T05:13:18.628Z,80.76
2017-08-06T05:14:18.629Z,80.57
2017-08-06T05:15:18.629Z,81.05
2017-08-06T05:16:18.628Z,81.15
2017-08-06T05:17:18.634Z,80.96
2017-08-06T05:18:21.353Z,80.57
2017-08-06T05:19:18.637Z,80.28
2017-08-06T05:20:18.640Z,80.28
2017-08-06T05:21:18.660Z,79.22
2017-08-06T05:22:18.348Z,79.71
2017-08-06T05:23:18.651Z,78.84
2017-08-06T05:24:18.654Z,79.22
2017-08-06T05:25:18.648Z,79.32
2017-08-06T05:26:18.656Z,79.32
2017-08-06T05:27:18.654Z,79.03
2017-08-06T05:28:18.666Z,78.75
2017-08-06T05:29:18.656Z,79.32
2017-08-06T05:30:18.661Z,79.22
2017-08-06T05:31:18.674Z,79.13
2017-08-06T05:32:18.364Z,79.13
2017-08-06T05:33:18.665Z,79.13
2017-08-06T05:34:18.673Z,79.22
2017-08-06T05:35:18.671Z,79.52
2017-08-06T05:36:18.373Z,78.98
2017-08-06T05:37:18.676Z,78.69
2017-08-06T05:38:18.679Z,78.5
2017-08-06T05:39:18.682Z,78.3
2017-08-06T05:40:18.683Z,77.83
2017-08-06T05:41:18.685Z,77.92
2017-08-06T05:42:18.693Z,77.44
2017-08-06T05:43:18.696Z,77.15
2017-08-06T05:44:18.693Z,77.29
2017-08-06T05:45:18.395Z,76.42
2017-08-06T05:46:18.701Z,75.11
2017-08-06T05:47:18.704Z,74.73
2017-08-06T05:48:18.702Z,73.96
2017-08-06T05:49:18.709Z,74.25
2017-08-06T05:50:18.409Z,73.67
2017-08-06T05:51:18.710Z,72.94
2017-08-06T05:52:18.725Z,72.94
2017-08-06T05:53:18.729Z,73.03
2017-08-06T05:54:18.731Z,73.57
2017-08-06T05:55:18.729Z,73.42
2017-08-06T05:56:18.730Z,72.55
2017-08-06T05:57:18.732Z,73.86
2017-08-06T05:58:18.735Z,73.28
2017-08-06T05:59:18.742Z,73.47
2017-08-06T06:00:18.741Z,73.77
2017-08-06T06:01:18.745Z,73.67
2017-08-06T06:02:18.751Z,73.47
2017-08-06T06:03:18.748Z,72.8
2017-08-06T06:04:18.803Z,73.09
2017-08-06T06:05:18.756Z,72.61
2017-08-06T06:06:18.758Z,72.26
2017-08-06T06:07:18.466Z,71.59
2017-08-06T06:08:18.769Z,70.37
2017-08-06T06:09:18.472Z,69.41
2017-08-06T06:10:18.481Z,67.39
2017-08-06T06:11:18.788Z,66.27
2017-08-06T06:12:18.779Z,65.2
2017-08-06T06:13:18.797Z,65.69
2017-08-06T06:14:18.797Z,66.27
2017-08-06T06:15:18.792Z,66.36
2017-08-06T06:16:18.800Z,66.17
2017-08-06T06:17:18.797Z,65.88
2017-08-06T06:18:18.500Z,63.95
2017-08-06T06:19:22.368Z,63.41
2017-08-06T06:20:18.811Z,62.54
2017-08-06T06:21:18.814Z,61.41
2017-08-06T06:22:18.517Z,59.71
2017-08-06T06:23:18.821Z,59.32
2017-08-06T06:24:18.828Z,59.25
2017-08-06T06:25:18.836Z,58.77
2017-08-06T06:26:18.836Z,58.87
2017-08-06T06:27:18.851Z,59.83
2017-08-06T06:28:18.845Z,59.9
2017-08-06T06:29:18.853Z,59.83
2017-08-06T06:30:18.853Z,59.06
2017-08-06T06:31:18.860Z,58.75
2017-08-06T06:32:18.863Z,59.9
2017-08-06T06:33:18.884Z,60.83
2017-08-06T06:34:18.886Z,62.83
2017-08-06T06:35:18.884Z,62.93
2017-08-06T06:36:18.886Z,61.87
2017-08-06T06:37:18.893Z,60.55
2017-08-06T06:38:18.590Z,58.45
2017-08-06T06:39:18.894Z,57.14
2017-08-06T06:40:19.674Z,56.68
2017-08-06T06:41:18.909Z,56.77
2017-08-06T06:42:18.912Z,56.22
2017-08-06T06:43:18.921Z,54.1
2017-08-06T06:44:18.921Z,53.45
2017-08-06T06:45:18.928Z,54.25
2017-08-06T06:46:18.942Z,54.41
2017-08-06T06:47:18.952Z,54.8
2017-08-06T06:48:18.947Z,53.45
2017-08-06T06:49:18.954Z,53.77
2017-08-06T06:50:18.956Z,52.7
2017-08-06T06:51:18.964Z,51.86
2017-08-06T06:52:18.970Z,51.18
2017-08-06T06:53:18.972Z,50.79
2017-08-06T06:54:18.987Z,50.72
2017-08-06T06:55:18.985Z,50.72
2017-08-06T06:56:18.992Z,49.37
2017-08-06T06:57:18.699Z,49.29
2017-08-06T06:58:19.005Z,50.14
2017-08-06T06:59:19.010Z,51.2
2017-08-06T07:00:18.720Z,52.61
2017-08-06T07:01:19.024Z,53.93
2017-08-06T07:02:19.031Z,55.26
2017-08-06T07:03:19.034Z,55.07
2017-08-06T07:04:19.037Z,54.77
2017-08-06T07:05:19.045Z,53.91
2017-08-06T07:06:19.061Z,52.97
2017-08-06T07:07:19.061Z,53.09
2017-08-06T07:08:19.063Z,52.22
2017-08-06T07:09:18.775Z,52.89
2017-08-06T07:10:19.086Z,52.12
2017-08-06T07:11:19.084Z,52.61
2017-08-06T07:12:19.087Z,52.51
2017-08-06T07:13:19.091Z,52.8
2017-08-06T07:14:19.099Z,52.8
2017-08-06T07:15:19.104Z,52.41
2017-08-06T07:16:19.115Z,51.83
2017-08-06T07:17:19.122Z,52.05
2017-08-06T07:18:19.127Z,53.09
2017-08-06T07:19:19.132Z,52.44
2017-08-06T07:20:20.392Z,50.6
2017-08-06T07:21:19.147Z,48.35
2017-08-06T07:22:19.147Z,46.53
2017-08-06T07:23:19.164Z,45.41
2017-08-06T07:24:18.856Z,44.64
2017-08-06T07:25:19.164Z,45.51
2017-08-06T07:26:19.172Z,45.21
2017-08-06T07:27:18.879Z,45.21
2017-08-06T07:28:19.185Z,43.1
2017-08-06T07:29:19.192Z,41.78
2017-08-06T07:30:19.218Z,41.32
2017-08-06T07:31:19.212Z,41.24
2017-08-06T07:32:19.217Z,42.1
2017-08-06T07:33:19.224Z,40.06
2017-08-06T07:34:19.230Z,38.71
2017-08-06T07:35:18.985Z,38.64
2017-08-06T07:36:19.248Z,38.34
2017-08-06T07:37:18.961Z,37.87
2017-08-06T07:38:19.260Z,37.77
2017-08-06T07:39:19.271Z,37.19
2017-08-06T07:40:19.277Z,36.63
2017-08-06T07:41:19.285Z,35.94
2017-08-06T07:42:19.290Z,35.08
2017-08-06T07:43:19.341Z,35.08
2017-08-06T07:44:19.308Z,34.52
2017-08-06T07:45:19.329Z,35.51
2017-08-06T07:46:19.334Z,35.1
2017-08-06T07:47:19.042Z,34.63
2017-08-06T07:48:19.341Z,34.24
2017-08-06T07:49:19.351Z,33.26
2017-08-06T07:50:20.419Z,34.52
2017-08-06T07:51:19.370Z,36.55
2017-08-06T07:52:19.377Z,37.18
2017-08-06T07:53:19.390Z,38.03
2017-08-06T07:54:19.401Z,39.94
2017-08-06T07:55:19.435Z,41.45
2017-08-06T07:56:19.416Z,42.48
2017-08-06T07:57:19.122Z,43.72
2017-08-06T07:58:19.424Z,44.96
2017-08-06T07:59:19.430Z,44.57
2017-08-06T08:00:19.440Z,43.99
2017-08-06T08:01:19.449Z,43.23
2017-08-06T08:02:19.458Z,42.57
2017-08-06T08:03:19.469Z,41.43
2017-08-06T08:04:19.477Z,41.53
2017-08-06T08:05:19.477Z,41.53
2017-08-06T08:06:19.481Z,41.82
2017-08-06T08:07:19.490Z,41.06
2017-08-06T08:08:19.200Z,40.21
2017-08-06T08:09:19.508Z,38.98
2017-08-06T08:10:19.512Z,37.54
2017-08-06T08:11:19.517Z,37.58
2017-08-06T08:12:19.530Z,35.85
2017-08-06T08:13:19.554Z,35.18
2017-08-06T08:14:19.558Z,33.64
2017-08-06T08:15:19.570Z,32.39
2017-08-06T08:16:19.561Z,31.6
2017-08-06T08:17:19.268Z,32.19
2017-08-06T08:18:19.575Z,33.53
2017-08-06T08:19:19.584Z,33.23
2017-08-06T08:20:19.592Z,34.58
2017-08-06T08:21:19.598Z,34.86
2017-08-06T08:22:19.607Z,34.17
2017-08-06T08:23:19.613Z,33.7
2017-08-06T08:24:19.622Z,32.26
2017-08-06T08:25:19.630Z,32.65
2017-08-06T08:26:19.336Z,32.16
2017-08-06T08:27:19.646Z,31.88
2017-08-06T08:28:19.655Z,32.35
2017-08-06T08:29:19.664Z,33.7
2017-08-06T08:30:19.671Z,34.47
2017-08-06T08:31:19.683Z,35.21
2017-08-06T08:32:19.695Z,35.8
2017-08-06T08:33:19.702Z,36.94
2017-08-06T08:34:19.709Z,38.75
2017-08-06T08:35:19.716Z,39.22
2017-08-06T08:36:19.726Z,39.9
2017-08-06T08:37:19.727Z,39.88
2017-08-06T08:38:19.736Z,39.11
2017-08-06T08:39:19.764Z,39.03
2017-08-06T08:40:19.756Z,40.09
2017-08-06T08:41:19.454Z,40.44
2017-08-06T08:42:19.470Z,41.12
2017-08-06T08:43:19.771Z,41.49
2017-08-06T08:44:19.804Z,41.68
2017-08-06T08:45:19.790Z,40.25
2017-08-06T08:46:19.802Z,39.01
2017-08-06T08:47:19.800Z,38.64
2017-08-06T08:48:19.815Z,37.59
2017-08-06T08:49:19.514Z,36.83
2017-08-06T08:50:19.819Z,36.46
2017-08-06T08:51:19.831Z,37.51
2017-08-06T08:52:19.548Z,38.37
2017-08-06T08:53:19.845Z,39.8
2017-08-06T08:54:19.846Z,41.16
2017-08-06T08:55:19.857Z,40.36
2017-08-06T08:56:19.864Z,41.14
2017-08-06T08:57:19.871Z,41.51
2017-08-06T08:58:19.879Z,41.8
2017-08-06T08:59:19.885Z,42.54
2017-08-06T09:00:19.894Z,43.87
2017-08-06T09:01:19.906Z,43.87
2017-08-06T09:02:19.907Z,44.33
2017-08-06T09:03:19.910Z,44.91
2017-08-06T09:04:19.919Z,46.17
2017-08-06T09:05:19.986Z,46.73
2017-08-06T09:06:20.430Z,46.34
2017-08-06T09:07:19.642Z,46.44
2017-08-06T09:08:19.951Z,45.57
2017-08-06T09:09:19.948Z,45.76
2017-08-06T09:10:19.962Z,46.8
2017-08-06T09:11:19.961Z,47.55
2017-08-06T09:12:19.967Z,48.49
2017-08-06T09:13:19.972Z,49.37
2017-08-06T09:14:19.978Z,49.46
2017-08-06T09:15:19.986Z,49.46
2017-08-06T09:16:19.689Z,50.01
2017-08-06T09:17:19.727Z,49.82
2017-08-06T09:18:19.998Z,49.92
2017-08-06T09:19:20.017Z,50.01
2017-08-06T09:20:19.726Z,50.11
2017-08-06T09:21:22.071Z,49.65
2017-08-06T09:22:20.028Z,49.55
2017-08-06T09:23:20.033Z,50.04
2017-08-06T09:24:19.738Z,50.89
2017-08-06T09:25:20.040Z,50.98
2017-08-06T09:26:20.040Z,50.89
2017-08-06T09:27:20.046Z,51.37
2017-08-06T09:28:20.055Z,49.82
2017-08-06T09:29:20.058Z,50.01
2017-08-06T09:30:20.069Z,50.59
2017-08-06T09:31:20.066Z,50.13
2017-08-06T09:32:20.069Z,49.37
2017-08-06T09:33:20.073Z,48.79
2017-08-06T09:34:20.079Z,48.59
2017-08-06T09:35:20.092Z,48.49
2017-08-06T09:36:22.839Z,49.55
2017-08-06T09:37:20.093Z,49.63
2017-08-06T09:38:20.094Z,50.11
2017-08-06T09:39:20.101Z,49.15
2017-08-06T09:40:19.802Z,48.66
2017-08-06T09:41:20.112Z,51.1
2017-08-06T09:42:20.115Z,47.53
2017-08-06T09:43:19.814Z,46.68
2017-08-06T09:44:19.820Z,46.3
2017-08-06T09:45:20.127Z,46.39
2017-08-06T09:46:19.830Z,45.52
2017-08-06T09:47:20.141Z,45.33
2017-08-06T09:48:20.142Z,45.14
2017-08-06T09:49:19.843Z,43.51
2017-08-06T09:50:20.155Z,43.51
2017-08-06T09:51:20.174Z,43.03
2017-08-06T09:52:20.160Z,42.25
2017-08-06T09:53:20.169Z,42.74
2017-08-06T09:54:20.168Z,42.93
2017-08-06T09:55:19.874Z,42.28
2017-08-06T09:56:20.211Z,42.28
2017-08-06T09:57:20.184Z,42.96
2017-08-06T09:58:20.189Z,43.05
2017-08-06T09:59:19.900Z,43.05
2017-08-06T10:00:20.199Z,42.57
2017-08-06T10:01:20.204Z,43.61
2017-08-06T10:02:20.206Z,44.26
2017-08-06T10:03:19.920Z,46.49
2017-08-06T10:04:20.229Z,46.37
2017-08-06T10:05:20.269Z,44.63
2017-08-06T10:06:20.233Z,43.95
2017-08-06T10:07:19.937Z,44.15
2017-08-06T10:08:20.236Z,44.24
2017-08-06T10:09:20.245Z,43.85
2017-08-06T10:10:20.252Z,43.57
2017-08-06T10:11:19.952Z,39.99
2017-08-06T10:12:20.262Z,41.15
2017-08-06T10:13:20.261Z,41.33
2017-08-06T10:14:20.263Z,40.84
2017-08-06T10:15:20.278Z,40.94
2017-08-06T10:16:20.279Z,40.67
2017-08-06T10:17:19.976Z,39.51
2017-08-06T10:18:20.288Z,40.4
2017-08-06T10:19:20.296Z,37.52
2017-08-06T10:20:20.293Z,35.29
2017-08-06T10:21:19.996Z,36.26
2017-08-06T10:22:21.965Z,36.46
2017-08-06T10:23:20.320Z,37.23
2017-08-06T10:24:20.329Z,37.13
2017-08-06T10:25:20.322Z,35.99
2017-08-06T10:26:20.321Z,34.63
2017-08-06T10:27:20.329Z,34.92
2017-08-06T10:28:20.342Z,35.04
2017-08-06T10:29:20.339Z,34.45
2017-08-06T10:30:20.367Z,33.89
2017-08-06T10:31:20.346Z,34.28
2017-08-06T10:32:20.354Z,34.49
2017-08-06T10:33:20.361Z,34.59
2017-08-06T10:34:20.362Z,34.88
2017-08-06T10:35:20.371Z,35.93
2017-08-06T10:36:20.377Z,37.19
2017-08-06T10:37:20.886Z,36.58
2017-08-06T10:38:20.393Z,37.67
2017-08-06T10:39:20.395Z,37.77
2017-08-06T10:40:20.393Z,37.09
2017-08-06T10:41:20.401Z,36.99
2017-08-06T10:42:20.406Z,36.51
2017-08-06T10:43:20.108Z,36.7
2017-08-06T10:44:20.426Z,36.49
2017-08-06T10:45:20.425Z,36.58
2017-08-06T10:46:20.430Z,37.55
2017-08-06T10:47:20.437Z,37.65
2017-08-06T10:48:20.434Z,38.53
2017-08-06T10:49:20.145Z,38.33
2017-08-06T10:50:20.463Z,38.71
2017-08-06T10:51:20.456Z,38.89
2017-08-06T10:52:20.460Z,38.99
2017-08-06T10:53:20.467Z,38.99
2017-08-06T10:54:20.470Z,39.01
2017-08-06T10:55:20.476Z,38.04
2017-08-06T10:56:20.180Z,38.62
2017-08-06T10:57:20.485Z,39.76
2017-08-06T10:58:20.493Z,39.67
2017-08-06T10:59:20.493Z,39.95
2017-08-06T11:00:20.500Z,40.05
2017-08-06T11:01:20.206Z,39.09
2017-08-06T11:02:20.510Z,38.71
2017-08-06T11:03:20.524Z,38.04
2017-08-06T11:04:20.527Z,37.87
2017-08-06T11:05:20.532Z,38.06
2017-08-06T11:06:20.534Z,37.67
2017-08-06T11:07:20.543Z,37.77
2017-08-06T11:08:20.547Z,38.45
2017-08-06T11:09:20.557Z,38.06
2017-08-06T11:10:20.568Z,38.35
2017-08-06T11:11:20.570Z,38.62
2017-08-06T11:12:20.578Z,39.59
2017-08-06T11:13:20.568Z,39.78
2017-08-06T11:14:20.572Z,40.34
2017-08-06T11:15:20.598Z,41.11
2017-08-06T11:16:20.595Z,41.39
2017-08-06T11:17:20.602Z,41.66
2017-08-06T11:18:20.298Z,42.62
2017-08-06T11:19:20.307Z,43.59
2017-08-06T11:20:20.300Z,41.75
2017-08-06T11:21:20.607Z,42.62
2017-08-06T11:22:20.621Z,43.13
2017-08-06T11:23:22.425Z,42.93
2017-08-06T11:24:20.629Z,42.55
2017-08-06T11:25:20.353Z,41.19
2017-08-06T11:26:20.333Z,40.52
2017-08-06T11:27:20.335Z,38.78
2017-08-06T11:28:20.647Z,38.76
2017-08-06T11:29:20.347Z,39.53
2017-08-06T11:30:20.655Z,38.95
2017-08-06T11:31:20.660Z,39.16
2017-08-06T11:32:20.660Z,39.16
2017-08-06T11:33:20.669Z,38.78
2017-08-06T11:34:20.672Z,39.06
2017-08-06T11:35:20.676Z,38.97
2017-08-06T11:36:20.680Z,38.48
2017-08-06T11:37:20.688Z,38.48
2017-08-06T11:38:21.693Z,38.31
2017-08-06T11:39:20.695Z,38.21
2017-08-06T11:40:20.417Z,38.12
2017-08-06T11:41:20.706Z,37.44
2017-08-06T11:42:20.716Z,37.54
2017-08-06T11:43:20.716Z,37.82
2017-08-06T11:44:20.429Z,41.89
2017-08-06T11:45:20.739Z,42.47
2017-08-06T11:46:20.440Z,41.7
2017-08-06T11:47:20.738Z,41.97
2017-08-06T11:48:20.740Z,42.07
2017-08-06T11:49:20.752Z,42.62
2017-08-06T11:50:20.750Z,42.72
2017-08-06T11:51:20.754Z,43.88
2017-08-06T11:52:20.762Z,45.52
2017-08-06T11:53:20.766Z,45.33
2017-08-06T11:54:20.778Z,43.98
2017-08-06T11:55:20.483Z,43.88
2017-08-06T11:56:20.785Z,44.07
2017-08-06T11:57:20.487Z,44.94
2017-08-06T11:58:20.788Z,43.68
2017-08-06T11:59:20.795Z,43.88
2017-08-06T12:00:20.799Z,43.01
2017-08-06T12:01:20.803Z,42.93
2017-08-06T12:02:20.811Z,43.32
2017-08-06T12:03:20.812Z,43.34
2017-08-06T12:04:20.824Z,42.76
2017-08-06T12:05:20.823Z,41.79
2017-08-06T12:06:20.825Z,41.89
2017-08-06T12:07:20.529Z,41.77
2017-08-06T12:08:20.538Z,40.92
2017-08-06T12:09:20.550Z,41.48
2017-08-06T12:10:20.865Z,40.9
2017-08-06T12:11:20.867Z,41.77
2017-08-06T12:12:20.856Z,41.67
2017-08-06T12:13:20.865Z,41.94
2017-08-06T12:14:20.867Z,42.04
2017-08-06T12:15:20.568Z,43.4
2017-08-06T12:16:20.873Z,41.66
2017-08-06T12:17:20.576Z,41.77
2017-08-06T12:18:20.889Z,42.43
2017-08-06T12:19:20.891Z,42.04
2017-08-06T12:20:20.894Z,41.77
2017-08-06T12:21:20.905Z,41.67
2017-08-06T12:22:20.899Z,41.97
2017-08-06T12:23:20.915Z,41.58
2017-08-06T12:24:20.922Z,41.67
2017-08-06T12:25:20.934Z,43.54
2017-08-06T12:26:20.918Z,42.28
2017-08-06T12:27:20.934Z,42.18
2017-08-06T12:28:20.937Z,42.28
2017-08-06T12:29:20.631Z,41.89
2017-08-06T12:30:20.640Z,43.15
2017-08-06T12:31:20.953Z,43.82
2017-08-06T12:32:20.978Z,43.17
2017-08-06T12:33:20.953Z,42.4
2017-08-06T12:34:20.963Z,43.15
2017-08-06T12:35:20.965Z,43.17
2017-08-06T12:36:20.666Z,42.78
2017-08-06T12:37:20.968Z,41.04
2017-08-06T12:38:20.681Z,41.04
2017-08-06T12:39:20.983Z,41.31
2017-08-06T12:40:20.982Z,41.31
2017-08-06T12:41:20.995Z,41.5
2017-08-06T12:42:21.000Z,41.11
2017-08-06T12:43:21.001Z,41.31
2017-08-06T12:44:21.024Z,41.02
2017-08-06T12:45:21.007Z,42.4
2017-08-06T12:46:21.014Z,41.62
2017-08-06T12:47:21.026Z,41.82
2017-08-06T12:48:21.031Z,41.33
2017-08-06T12:49:20.725Z,42.76
2017-08-06T12:50:20.734Z,43.44
2017-08-06T12:51:20.748Z,41.21
2017-08-06T12:52:21.047Z,40.92
2017-08-06T12:53:20.746Z,41.41
2017-08-06T12:54:21.103Z,41.7